Time;durP1;ratioP1;P1;durP2;ratioP2;P2;SDS_P1;SDS_P2;PMS_P1;PMS_P2;Temp;Humidity;BMP_temperature;BMP_pressure;BME280_temperature;BME280_humidity;BME280_pressure;Samples;Min_cycle;Max_cycle;Signal;HPM_P1;HPM_P2
2022/05/08 00:01:19;;;;;;;15.57;4.43;;;;;;;;;;5011347;28;20129;-84
2022/05/08 00:03:45;;;;;;;13.50;4.10;;;;;;;;;;5010474;28;20128;-83
2022/05/08 00:06:14;;;;;;;12.95;4.10;;;;;;;;;;5040987;28;20041;-83
2022/05/08 00:08:40;;;;;;;13.70;4.60;;;;;;;;;;5045858;28;20444;-83
2022/05/08 00:11:06;;;;;;;12.70;3.97;;;;;;;;;;5031269;28;20077;-84
2022/05/08 00:13:41;;;;;;;14.13;4.55;;;;;;;;;;4999532;28;20046;-83
2022/05/08 00:16:07;;;;;;;14.52;4.70;;;;;;;;;;5041890;28;20056;-83
2022/05/08 00:18:33;;;;;;;11.38;4.30;;;;;;;;;;5019380;28;20049;-83
2022/05/08 00:20:59;;;;;;;10.50;4.45;;;;;;;;;;5006700;28;20054;-83
2022/05/08 00:23:25;;;;;;;13.20;4.68;;;;;;;;;;5035094;28;20409;-83
2022/05/08 00:25:54;;;;;;;12.05;3.97;;;;;;;;;;5021265;28;20041;-83
2022/05/08 00:28:20;;;;;;;14.80;4.95;;;;;;;;;;5033017;28;20512;-83
2022/05/08 00:30:47;;;;;;;10.77;4.22;;;;;;;;;;5010222;28;20041;-84
2022/05/08 00:33:13;;;;;;;13.48;4.70;;;;;;;;;;5016671;28;20056;-83
2022/05/08 00:35:42;;;;;;;11.20;4.10;;;;;;;;;;5043879;28;20080;-83
2022/05/08 00:38:08;;;;;;;11.98;3.90;;;;;;;;;;5035603;28;20050;-83
2022/05/08 00:40:37;;;;;;;12.75;4.07;;;;;;;;;;5024022;28;20049;-83
2022/05/08 00:43:22;;;;;;;10.13;3.95;;;;;;;;;;5014997;28;20084;-83
2022/05/08 00:45:48;;;;;;;9.50;4.00;;;;;;;;;;5013017;28;20049;-84
2022/05/08 00:48:14;;;;;;;13.73;3.67;;;;;;;;;;5011151;28;20092;-84
2022/05/08 00:50:40;;;;;;;13.88;4.10;;;;;;;;;;5011385;28;20393;-84
2022/05/08 00:53:06;;;;;;;13.65;3.92;;;;;;;;;;5026590;28;20042;-84
2022/05/08 00:55:32;;;;;;;11.88;3.70;;;;;;;;;;5003605;28;20101;-84
2022/05/08 00:58:00;;;;;;;12.88;4.63;;;;;;;;;;5006296;28;20049;-84
2022/05/08 01:00:26;;;;;;;13.40;3.92;;;;;;;;;;5016794;28;20490;-84
2022/05/08 01:02:52;;;;;;;13.32;4.40;;;;;;;;;;5021472;28;20136;-84
2022/05/08 01:05:18;;;;;;;13.25;4.47;;;;;;;;;;5023270;28;20132;-84
2022/05/08 01:07:44;;;;;;;15.30;4.38;;;;;;;;;;5026666;28;20041;-84
2022/05/08 01:10:10;;;;;;;13.75;3.63;;;;;;;;;;5017181;28;20045;-83
2022/05/08 01:12:44;;;;;;;12.02;4.28;;;;;;;;;;5016489;28;20060;-84
2022/05/08 01:15:14;;;;;;;12.57;4.30;;;;;;;;;;5014760;28;20037;-84
2022/05/08 01:17:40;;;;;;;15.75;4.20;;;;;;;;;;5035867;28;20049;-84
2022/05/08 01:20:07;;;;;;;11.32;3.80;;;;;;;;;;5016957;28;20492;-84
2022/05/08 01:22:33;;;;;;;12.05;4.00;;;;;;;;;;5021636;28;20434;-83
2022/05/08 01:25:03;;;;;;;12.98;4.05;;;;;;;;;;5022557;28;20111;-84
2022/05/08 01:27:29;;;;;;;12.38;4.57;;;;;;;;;;5009785;28;20057;-83
2022/05/08 01:29:58;;;;;;;17.17;4.90;;;;;;;;;;5008475;28;20479;-84
2022/05/08 01:32:24;;;;;;;16.25;4.15;;;;;;;;;;5009277;28;20473;-83
2022/05/08 01:34:50;;;;;;;11.95;4.32;;;;;;;;;;5004022;28;20046;-84
2022/05/08 01:37:19;;;;;;;10.85;3.90;;;;;;;;;;5016293;28;20053;-84
2022/05/08 01:39:45;;;;;;;12.13;3.85;;;;;;;;;;5025833;28;20053;-84
2022/05/08 01:42:11;;;;;;;9.95;4.00;;;;;;;;;;5013545;28;20058;-84
2022/05/08 01:44:37;;;;;;;12.05;4.32;;;;;;;;;;5000861;28;20442;-84
2022/05/08 01:49:51;;;;;;;13.05;3.63;;;;;;;;;;5011970;28;20136;-84
2022/05/08 01:52:17;;;;;;;8.88;3.47;;;;;;;;;;5031866;28;20053;-84
2022/05/08 01:54:43;;;;;;;7.20;3.28;;;;;;;;;;5026502;28;20499;-84
2022/05/08 01:57:09;;;;;;;13.32;3.38;;;;;;;;;;5027106;28;20042;-84
2022/05/08 01:59:35;;;;;;;9.55;3.78;;;;;;;;;;5013512;28;20080;-84
2022/05/08 02:02:01;;;;;;;17.67;3.90;;;;;;;;;;5006669;28;20053;-84
2022/05/08 02:04:27;;;;;;;11.68;3.50;;;;;;;;;;5012830;28;20128;-84
2022/05/08 02:06:53;;;;;;;13.95;3.97;;;;;;;;;;5005754;28;20493;-83
2022/05/08 02:09:25;;;;;;;9.60;3.72;;;;;;;;;;5031087;28;20500;-83
2022/05/08 02:11:51;;;;;;;8.48;3.22;;;;;;;;;;5032416;28;20037;-84
2022/05/08 02:14:17;;;;;;;10.63;3.55;;;;;;;;;;5027060;28;20746;-84
2022/05/08 02:16:43;;;;;;;10.27;3.67;;;;;;;;;;5017166;28;20556;-84
2022/05/08 02:19:09;;;;;;;9.63;3.60;;;;;;;;;;5025935;28;20053;-83
2022/05/08 02:21:35;;;;;;;11.45;3.67;;;;;;;;;;5004942;28;20110;-84
2022/05/08 02:24:02;;;;;;;8.45;3.47;;;;;;;;;;5011589;28;20046;-83
2022/05/08 02:26:27;;;;;;;11.93;3.67;;;;;;;;;;5007275;28;20050;-83
2022/05/08 02:28:53;;;;;;;11.65;3.63;;;;;;;;;;4998477;28;20042;-84
2022/05/08 02:31:20;;;;;;;10.27;3.22;;;;;;;;;;5015784;28;20053;-85
2022/05/08 02:33:46;;;;;;;9.60;3.40;;;;;;;;;;5012838;28;20478;-83
2022/05/08 02:36:13;;;;;;;7.72;3.08;;;;;;;;;;5017982;28;20199;-84
2022/05/08 02:38:39;;;;;;;9.32;3.28;;;;;;;;;;5026459;28;20846;-85
2022/05/08 02:41:05;;;;;;;11.45;3.30;;;;;;;;;;5012431;28;20038;-83
2022/05/08 02:43:32;;;;;;;8.70;3.50;;;;;;;;;;5041989;28;20045;-83
2022/05/08 02:46:00;;;;;;;9.15;3.63;;;;;;;;;;5008377;28;20068;-85
2022/05/08 02:48:27;;;;;;;9.93;3.50;;;;;;;;;;5014306;28;20128;-84
2022/05/08 02:50:53;;;;;;;11.27;3.63;;;;;;;;;;5007818;28;20064;-84
2022/05/08 02:53:20;;;;;;;10.77;2.90;;;;;;;;;;5014128;28;20132;-84
2022/05/08 02:58:34;;;;;;;10.48;3.05;;;;;;;;;;5001192;28;20054;-84
2022/05/08 03:01:01;;;;;;;9.52;3.28;;;;;;;;;;5010098;28;20034;-85
2022/05/08 03:03:27;;;;;;;10.57;3.42;;;;;;;;;;5014858;28;20045;-83
2022/05/08 03:05:53;;;;;;;9.40;2.80;;;;;;;;;;5017697;28;20045;-83
2022/05/08 03:08:19;;;;;;;11.57;3.50;;;;;;;;;;5032047;28;20392;-84
2022/05/08 03:13:38;;;;;;;7.45;3.05;;;;;;;;;;5036406;28;20183;-83
2022/05/08 03:16:05;;;;;;;7.70;3.10;;;;;;;;;;5016300;28;20043;-85
2022/05/08 03:18:31;;;;;;;10.40;2.90;;;;;;;;;;5030256;28;20096;-84
2022/05/08 03:20:57;;;;;;;7.45;2.70;;;;;;;;;;5033674;28;20053;-84
2022/05/08 03:23:23;;;;;;;5.50;2.67;;;;;;;;;;5046474;28;20076;-84
2022/05/08 03:25:50;;;;;;;5.68;2.58;;;;;;;;;;5013432;28;20050;-84
2022/05/08 03:28:17;;;;;;;7.85;2.50;;;;;;;;;;5009826;28;20449;-84
2022/05/08 03:30:43;;;;;;;6.72;2.78;;;;;;;;;;5010095;28;20511;-84
2022/05/08 03:33:09;;;;;;;8.02;2.97;;;;;;;;;;5024825;28;20121;-84
2022/05/08 03:35:39;;;;;;;8.93;2.65;;;;;;;;;;5033195;28;20046;-84
2022/05/08 03:38:05;;;;;;;6.07;2.55;;;;;;;;;;5024382;28;20170;-84
2022/05/08 03:40:32;;;;;;;6.70;3.00;;;;;;;;;;5010111;28;20042;-84
2022/05/08 03:42:58;;;;;;;8.32;3.00;;;;;;;;;;5026222;28;20041;-84
2022/05/08 03:45:25;;;;;;;6.90;2.70;;;;;;;;;;5009419;28;20053;-84
2022/05/08 03:47:51;;;;;;;9.88;2.80;;;;;;;;;;5021323;28;20511;-84
2022/05/08 03:50:18;;;;;;;11.35;3.03;;;;;;;;;;5036053;28;20038;-84
2022/05/08 03:52:47;;;;;;;8.57;2.55;;;;;;;;;;5002802;28;20037;-84
2022/05/08 03:55:15;;;;;;;8.60;2.85;;;;;;;;;;5033060;28;20068;-84
2022/05/08 03:57:45;;;;;;;7.22;2.58;;;;;;;;;;5025489;28;20494;-85
2022/05/08 04:00:11;;;;;;;6.88;3.00;;;;;;;;;;5045333;28;20038;-84
2022/05/08 04:02:38;;;;;;;5.78;2.67;;;;;;;;;;5008436;28;20064;-84
2022/05/08 04:05:05;;;;;;;6.28;2.80;;;;;;;;;;5016109;28;20041;-84
2022/05/08 04:07:31;;;;;;;7.25;2.53;;;;;;;;;;5043095;28;20120;-84
2022/05/08 04:09:57;;;;;;;6.15;2.40;;;;;;;;;;5009122;28;20077;-83
2022/05/08 04:12:23;;;;;;;8.00;2.75;;;;;;;;;;5005683;28;20478;-83
2022/05/08 04:14:49;;;;;;;7.80;2.80;;;;;;;;;;4996659;28;20133;-84
2022/05/08 04:17:16;;;;;;;5.63;2.22;;;;;;;;;;5035885;28;20115;-84
2022/05/08 04:19:42;;;;;;;6.30;2.50;;;;;;;;;;5035824;28;20449;-84
2022/05/08 04:24:53;;;;;;;4.90;2.78;;;;;;;;;;5013507;28;20105;-84
2022/05/08 04:27:20;;;;;;;6.13;2.45;;;;;;;;;;5010854;28;20057;-84
2022/05/08 04:29:46;;;;;;;5.88;2.20;;;;;;;;;;5013382;28;20458;-84
2022/05/08 04:32:12;;;;;;;5.80;2.50;;;;;;;;;;5002921;28;20082;-84
2022/05/08 04:34:38;;;;;;;7.45;2.58;;;;;;;;;;5021679;28;20946;-84
2022/05/08 04:37:04;;;;;;;7.57;2.78;;;;;;;;;;5005916;28;20370;-83
2022/05/08 04:39:30;;;;;;;4.15;2.08;;;;;;;;;;5028923;28;20404;-84
2022/05/08 04:41:56;;;;;;;6.85;2.45;;;;;;;;;;5021329;28;20046;-83
2022/05/08 04:44:22;;;;;;;8.48;2.58;;;;;;;;;;5044058;28;20053;-83
2022/05/08 04:46:48;;;;;;;8.05;2.78;;;;;;;;;;5014857;28;20501;-84
2022/05/08 04:49:14;;;;;;;7.60;2.28;;;;;;;;;;5013286;28;20038;-84
2022/05/08 04:51:40;;;;;;;5.43;2.20;;;;;;;;;;5039536;28;20054;-84
2022/05/08 04:54:06;;;;;;;5.20;2.30;;;;;;;;;;5004085;28;20395;-84
2022/05/08 04:56:32;;;;;;;5.15;2.25;;;;;;;;;;5012973;28;20103;-84
2022/05/08 04:58:58;;;;;;;4.82;2.05;;;;;;;;;;4998266;28;20042;-84
2022/05/08 05:01:27;;;;;;;5.45;2.38;;;;;;;;;;5003699;28;20045;-83
2022/05/08 05:03:54;;;;;;;6.55;2.13;;;;;;;;;;4994144;28;20050;-83
2022/05/08 05:06:25;;;;;;;5.10;2.40;;;;;;;;;;5002456;28;20041;-83
2022/05/08 05:08:51;;;;;;;5.72;2.20;;;;;;;;;;5017508;28;20104;-83
2022/05/08 05:11:17;;;;;;;5.53;2.17;;;;;;;;;;5019595;28;20045;-84
2022/05/08 05:13:43;;;;;;;5.53;2.25;;;;;;;;;;5033276;28;20049;-84
2022/05/08 05:16:09;;;;;;;6.93;2.60;;;;;;;;;;5015989;28;20560;-84
2022/05/08 05:18:41;;;;;;;4.82;2.20;;;;;;;;;;4992152;28;20046;-84
2022/05/08 05:21:07;;;;;;;5.82;2.17;;;;;;;;;;5029162;28;20058;-83
2022/05/08 05:23:34;;;;;;;9.35;2.72;;;;;;;;;;5020720;28;20116;-82
2022/05/08 05:26:00;;;;;;;5.50;2.50;;;;;;;;;;5019728;28;20071;-84
2022/05/08 05:28:26;;;;;;;6.18;2.40;;;;;;;;;;5036032;28;20125;-83
2022/05/08 05:30:52;;;;;;;7.75;2.38;;;;;;;;;;5018169;28;20706;-83
2022/05/08 05:33:22;;;;;;;8.00;2.53;;;;;;;;;;5031073;28;20087;-83
2022/05/08 05:35:48;;;;;;;6.28;2.40;;;;;;;;;;5022569;28;20079;-83
2022/05/08 05:38:14;;;;;;;5.55;2.47;;;;;;;;;;5030224;28;20489;-83
2022/05/08 05:40:40;;;;;;;6.30;2.70;;;;;;;;;;5026103;28;20062;-83
2022/05/08 05:43:06;;;;;;;7.60;2.63;;;;;;;;;;5016257;28;20091;-84
2022/05/08 05:45:32;;;;;;;5.30;2.30;;;;;;;;;;5015123;28;20044;-83
2022/05/08 05:48:00;;;;;;;5.95;2.40;;;;;;;;;;5010001;28;20053;-84
2022/05/08 05:50:27;;;;;;;4.82;2.30;;;;;;;;;;5026497;28;20184;-84
2022/05/08 05:52:53;;;;;;;6.05;2.38;;;;;;;;;;5044296;28;20506;-83
2022/05/08 05:55:20;;;;;;;8.68;2.50;;;;;;;;;;5013293;28;20046;-84
2022/05/08 05:57:49;;;;;;;5.05;2.40;;;;;;;;;;5013719;28;20084;-84
2022/05/08 06:00:16;;;;;;;4.97;2.40;;;;;;;;;;5015404;28;20045;-83
2022/05/08 06:02:43;;;;;;;5.43;2.13;;;;;;;;;;4998618;28;20393;-83
2022/05/08 06:05:10;;;;;;;5.32;2.20;;;;;;;;;;4994998;28;20054;-83
2022/05/08 06:07:37;;;;;;;3.85;2.20;;;;;;;;;;5019041;28;20442;-83
2022/05/08 06:10:04;;;;;;;6.18;2.10;;;;;;;;;;5017903;28;20041;-84
2022/05/08 06:12:30;;;;;;;8.23;2.33;;;;;;;;;;5018380;28;20431;-83
2022/05/08 06:14:56;;;;;;;8.02;2.40;;;;;;;;;;5022224;28;20077;-83
2022/05/08 06:17:22;;;;;;;4.30;1.98;;;;;;;;;;5016209;28;20096;-84
2022/05/08 06:19:49;;;;;;;5.25;2.30;;;;;;;;;;5014469;28;20058;-83
2022/05/08 06:22:15;;;;;;;5.82;2.28;;;;;;;;;;5018418;28;20054;-83
2022/05/08 06:24:41;;;;;;;3.80;1.90;;;;;;;;;;5012662;28;20133;-83
2022/05/08 06:27:07;;;;;;;4.90;2.13;;;;;;;;;;5033194;28;20042;-83
2022/05/08 06:29:33;;;;;;;6.82;2.38;;;;;;;;;;5016979;28;20065;-83
2022/05/08 06:32:00;;;;;;;3.72;2.20;;;;;;;;;;5031033;28;20072;-83
2022/05/08 06:34:29;;;;;;;5.10;1.95;;;;;;;;;;5018069;28;20099;-83
2022/05/08 06:36:55;;;;;;;5.15;2.45;;;;;;;;;;5016196;28;20045;-84
2022/05/08 06:39:22;;;;;;;4.07;2.05;;;;;;;;;;5013873;28;20058;-84
2022/05/08 06:41:48;;;;;;;3.17;2.10;;;;;;;;;;5012711;28;20061;-84
2022/05/08 06:44:14;;;;;;;4.60;2.00;;;;;;;;;;5040414;28;20151;-83
2022/05/08 06:46:40;;;;;;;9.07;2.30;;;;;;;;;;5046501;28;20050;-84
2022/05/08 06:49:07;;;;;;;5.00;1.95;;;;;;;;;;5030685;28;20408;-83
2022/05/08 06:51:34;;;;;;;4.28;2.05;;;;;;;;;;5014741;28;20077;-84
2022/05/08 06:54:00;;;;;;;6.78;2.25;;;;;;;;;;5027919;28;20050;-83
2022/05/08 06:56:26;;;;;;;6.18;2.40;;;;;;;;;;5039483;28;20049;-83
2022/05/08 07:01:43;;;;;;;7.03;2.70;;;;;;;;;;5021586;28;20050;-83
2022/05/08 07:04:10;;;;;;;4.97;2.25;;;;;;;;;;5032979;28;20515;-84
2022/05/08 07:06:37;;;;;;;4.72;2.35;;;;;;;;;;4999469;28;20046;-83
2022/05/08 07:09:15;;;;;;;7.43;2.40;;;;;;;;;;5012732;28;20042;-82
2022/05/08 07:11:45;;;;;;;7.80;2.33;;;;;;;;;;4998821;28;20073;-83
2022/05/08 07:14:10;;;;;;;4.43;1.98;;;;;;;;;;5001727;28;20512;-84
2022/05/08 07:16:37;;;;;;;4.68;2.40;;;;;;;;;;5022410;28;20050;-83
2022/05/08 07:19:03;;;;;;;4.40;2.30;;;;;;;;;;5016730;28;20054;-83
2022/05/08 07:21:29;;;;;;;4.03;2.10;;;;;;;;;;5019838;28;20049;-83
2022/05/08 07:23:55;;;;;;;5.95;2.50;;;;;;;;;;5016171;28;20104;-83
2022/05/08 07:26:21;;;;;;;5.20;2.20;;;;;;;;;;5016542;28;20052;-83
2022/05/08 07:28:47;;;;;;;4.18;2.10;;;;;;;;;;5027012;28;20124;-84
2022/05/08 07:31:13;;;;;;;7.32;2.28;;;;;;;;;;5012768;28;20132;-84
2022/05/08 07:33:42;;;;;;;4.93;2.10;;;;;;;;;;5040973;28;20461;-84
2022/05/08 07:36:14;;;;;;;8.38;2.15;;;;;;;;;;5021339;28;20084;-83
2022/05/08 07:38:44;;;;;;;5.47;2.13;;;;;;;;;;5007724;28;20425;-83
2022/05/08 07:41:17;;;;;;;6.93;2.20;;;;;;;;;;5046593;28;20041;-83
2022/05/08 07:43:45;;;;;;;;;;;;;;;;;;5002402;28;20042;-83
2022/05/08 07:46:11;;;;;;;3.60;1.95;;;;;;;;;;5011784;28;19921;-84
2022/05/08 07:48:37;;;;;;;7.10;2.63;;;;;;;;;;5014359;28;20528;-84
2022/05/08 07:51:03;;;;;;;4.38;1.85;;;;;;;;;;5009840;28;20053;-84
2022/05/08 07:53:30;;;;;;;7.32;2.63;;;;;;;;;;5008257;28;20050;-83
2022/05/08 07:55:57;;;;;;;5.03;1.80;;;;;;;;;;5022101;28;20045;-84
2022/05/08 07:58:23;;;;;;;8.23;2.42;;;;;;;;;;5018422;28;20061;-84
2022/05/08 08:00:53;;;;;;;6.15;2.30;;;;;;;;;;5007783;28;20414;-84
2022/05/08 08:03:19;;;;;;;8.20;2.50;;;;;;;;;;5011248;28;20065;-82
2022/05/08 08:05:45;;;;;;;4.68;2.20;;;;;;;;;;5023346;28;20132;-83
2022/05/08 08:08:12;;;;;;;5.63;2.33;;;;;;;;;;5012100;28;20512;-85
2022/05/08 08:10:39;;;;;;;5.68;2.50;;;;;;;;;;4996282;28;20049;-83
2022/05/08 08:13:05;;;;;;;4.45;2.25;;;;;;;;;;5024460;28;20049;-84
2022/05/08 08:15:31;;;;;;;5.80;2.17;;;;;;;;;;4985683;28;21055;-83
2022/05/08 08:17:57;;;;;;;7.35;2.50;;;;;;;;;;5008403;28;20058;-83
2022/05/08 08:20:23;;;;;;;7.07;2.10;;;;;;;;;;5010057;28;20053;-82
2022/05/08 08:22:49;;;;;;;5.53;2.38;;;;;;;;;;5023270;28;20504;-83
2022/05/08 08:25:16;;;;;;;5.93;2.30;;;;;;;;;;5028795;28;20041;-85
2022/05/08 08:27:42;;;;;;;6.60;2.33;;;;;;;;;;5023848;28;20053;-83
2022/05/08 08:30:08;;;;;;;5.70;2.70;;;;;;;;;;5014217;28;20038;-83
2022/05/08 08:32:34;;;;;;;5.15;2.05;;;;;;;;;;5018226;28;20050;-83
2022/05/08 08:35:00;;;;;;;6.20;2.55;;;;;;;;;;5011086;28;20416;-85
2022/05/08 08:37:29;;;;;;;5.28;2.53;;;;;;;;;;5013304;28;20042;-82
2022/05/08 08:39:55;;;;;;;5.20;2.22;;;;;;;;;;5011063;28;20050;-82
2022/05/08 08:42:29;;;;;;;4.95;2.13;;;;;;;;;;5019369;28;20528;-85
2022/05/08 08:47:52;;;;;;;6.03;2.20;;;;;;;;;;5017936;28;19925;-83
2022/05/08 08:50:41;;;;;;;5.03;2.38;;;;;;;;;;5019840;28;20409;-85
2022/05/08 08:53:07;;;;;;;5.10;2.30;;;;;;;;;;5011725;28;20058;-83
2022/05/08 08:55:33;;;;;;;8.68;2.40;;;;;;;;;;5009498;28;20217;-84
2022/05/08 08:58:00;;;;;;;6.95;2.60;;;;;;;;;;5011815;28;20053;-85
2022/05/08 09:00:27;;;;;;;5.78;2.55;;;;;;;;;;5015466;28;20082;-85
2022/05/08 09:02:55;;;;;;;6.97;2.53;;;;;;;;;;5011061;28;20084;-84
2022/05/08 09:05:21;;;;;;;5.35;2.38;;;;;;;;;;5014928;28;20440;-83
2022/05/08 09:07:48;;;;;;;9.25;2.50;;;;;;;;;;5020613;28;20053;-84
2022/05/08 09:10:21;;;;;;;4.43;2.20;;;;;;;;;;5012729;28;20134;-85
2022/05/08 09:12:56;;;;;;;6.50;3.10;;;;;;;;;;5034132;28;20041;-85
2022/05/08 09:15:26;;;;;;;4.43;1.85;;;;;;;;;;5036582;28;20061;-85
2022/05/08 09:17:53;;;;;;;5.07;2.53;;;;;;;;;;5038007;28;20156;-84
2022/05/08 09:20:29;;;;;;;6.18;2.42;;;;;;;;;;5015842;28;20509;-85
2022/05/08 09:23:04;;;;;;;;;;;;;;;;;;5005477;28;20037;-85
2022/05/08 09:25:47;;;;;;;5.05;2.10;;;;;;;;;;5006868;28;19947;-85
2022/05/08 09:28:17;;;;;;;6.18;2.25;;;;;;;;;;5006349;28;20053;-85
2022/05/08 09:30:54;;;;;;;7.25;2.50;;;;;;;;;;5016630;28;20058;-85
2022/05/08 09:33:30;;;;;;;5.90;2.47;;;;;;;;;;5001214;28;20081;-84
2022/05/08 09:36:03;;;;;;;3.55;2.35;;;;;;;;;;5022897;28;20075;-84
2022/05/08 09:38:48;;;;;;;5.32;2.53;;;;;;;;;;5018803;28;20053;-84
2022/05/08 09:41:21;;;;;;;6.57;2.40;;;;;;;;;;5012600;28;20095;-84
2022/05/08 09:43:48;;;;;;;4.50;1.90;;;;;;;;;;5014921;28;20042;-84
2022/05/08 09:46:14;;;;;;;5.53;2.78;;;;;;;;;;5030069;28;20056;-85
2022/05/08 09:48:40;;;;;;;5.63;2.65;;;;;;;;;;5020207;28;20042;-85
2022/05/08 09:51:15;;;;;;;6.65;2.45;;;;;;;;;;5004548;28;20041;-83
2022/05/08 09:53:41;;;;;;;4.75;2.03;;;;;;;;;;5028744;28;20049;-85
2022/05/08 09:56:08;;;;;;;7.22;2.35;;;;;;;;;;5027238;28;20049;-85
2022/05/08 09:58:44;;;;;;;6.20;2.63;;;;;;;;;;5005906;28;20481;-86
2022/05/08 10:01:10;;;;;;;5.53;2.70;;;;;;;;;;5003830;28;20053;-85
2022/05/08 10:03:36;;;;;;;6.40;2.53;;;;;;;;;;5018820;28;20072;-84
2022/05/08 10:06:06;;;;;;;7.00;2.40;;;;;;;;;;5023721;28;20045;-86
2022/05/08 10:08:37;;;;;;;4.82;2.45;;;;;;;;;;5029068;28;20049;-85
2022/05/08 10:14:07;;;;;;;5.38;2.30;;;;;;;;;;5017973;28;20054;-84
2022/05/08 10:16:52;;;;;;;6.00;2.78;;;;;;;;;;5020083;28;20050;-85
2022/05/08 10:19:21;;;;;;;6.15;3.33;;;;;;;;;;5018335;28;20764;-85
2022/05/08 10:22:17;;;;;;;7.07;2.95;;;;;;;;;;5019104;28;20045;-84
2022/05/08 10:24:54;;;;;;;8.75;2.88;;;;;;;;;;5015468;28;20075;-85
2022/05/08 10:27:25;;;;;;;4.78;2.00;;;;;;;;;;5017210;28;20042;-84
2022/05/08 10:29:54;;;;;;;8.98;2.70;;;;;;;;;;5012121;28;20358;-85
2022/05/08 10:32:35;;;;;;;4.35;2.30;;;;;;;;;;5029805;28;20041;-85
2022/05/08 10:35:04;;;;;;;6.10;2.22;;;;;;;;;;5007195;28;20050;-86
2022/05/08 10:37:31;;;;;;;8.40;2.78;;;;;;;;;;5019263;28;20427;-86
2022/05/08 10:39:57;;;;;;;6.63;2.53;;;;;;;;;;5028692;28;20389;-85
2022/05/08 10:42:29;;;;;;;6.32;2.50;;;;;;;;;;5016739;28;20062;-85
2022/05/08 10:44:59;;;;;;;6.85;2.80;;;;;;;;;;5006255;28;20054;-85
2022/05/08 10:47:43;;;;;;;5.45;2.25;;;;;;;;;;5026493;28;20139;-86
2022/05/08 10:50:13;;;;;;;9.68;2.85;;;;;;;;;;5014843;28;20093;-85
2022/05/08 10:52:44;;;;;;;5.32;2.42;;;;;;;;;;5051348;28;20042;-85
2022/05/08 10:55:15;;;;;;;4.28;2.55;;;;;;;;;;5016848;28;20056;-86
2022/05/08 10:57:41;;;;;;;7.93;2.50;;;;;;;;;;5007180;28;20058;-85
2022/05/08 11:00:09;;;;;;;4.93;2.80;;;;;;;;;;4997784;28;20050;-85
2022/05/08 11:02:59;;;;;;;6.28;2.53;;;;;;;;;;5017244;28;20037;-85
2022/05/08 11:05:36;;;;;;;7.97;2.35;;;;;;;;;;5015262;28;20139;-84
2022/05/08 11:08:03;;;;;;;6.53;2.85;;;;;;;;;;5022312;28;20401;-84
2022/05/08 11:10:30;;;;;;;4.57;2.40;;;;;;;;;;5011997;28;20038;-84
2022/05/08 11:12:59;;;;;;;9.13;2.65;;;;;;;;;;5016649;28;20064;-85
2022/05/08 11:15:29;;;;;;;6.55;2.47;;;;;;;;;;5031939;28;20056;-83
2022/05/08 11:18:11;;;;;;;9.85;2.85;;;;;;;;;;4998935;28;20042;-85
2022/05/08 11:20:43;;;;;;;6.22;2.60;;;;;;;;;;5021961;28;20786;-84
2022/05/08 11:23:13;;;;;;;6.18;2.90;;;;;;;;;;5015510;28;20049;-85
2022/05/08 11:25:46;;;;;;;6.28;2.20;;;;;;;;;;5009025;28;20046;-84
2022/05/08 11:28:16;;;;;;;3.72;1.90;;;;;;;;;;5046602;28;20124;-83
2022/05/08 11:30:42;;;;;;;6.38;2.25;;;;;;;;;;5025340;28;20531;-82
2022/05/08 11:36:06;;;;;;;6.00;2.22;;;;;;;;;;5023566;28;20141;-82
2022/05/08 11:38:39;;;;;;;8.52;2.58;;;;;;;;;;5016416;28;20057;-83
2022/05/08 11:41:05;;;;;;;;;;;;;;;;;;5016010;28;20477;-82
2022/05/08 11:43:57;;;;;;;6.38;2.58;;;;;;;;;;5015658;28;20372;-81
2022/05/08 11:46:55;;;;;;;8.45;2.67;;;;;;;;;;4997766;28;20046;-84
2022/05/08 11:49:22;;;;;;;5.75;2.38;;;;;;;;;;5022425;28;20058;-84
2022/05/08 11:51:50;;;;;;;7.22;2.30;;;;;;;;;;5021370;28;20055;-82
2022/05/08 11:54:23;;;;;;;7.15;2.40;;;;;;;;;;4995201;28;20050;-82
2022/05/08 11:56:53;;;;;;;8.57;2.50;;;;;;;;;;4996445;28;20048;-84
2022/05/08 11:59:20;;;;;;;7.82;2.88;;;;;;;;;;4994960;28;20050;-82
2022/05/08 12:01:54;;;;;;;4.28;2.20;;;;;;;;;;4995936;28;20061;-82
2022/05/08 12:04:24;;;;;;;10.70;2.75;;;;;;;;;;5026289;28;20045;-81
2022/05/08 12:07:03;;;;;;;8.50;2.50;;;;;;;;;;5033045;28;20057;-82
2022/05/08 12:09:30;;;;;;;4.40;2.45;;;;;;;;;;5004848;28;20121;-82
2022/05/08 12:11:56;;;;;;;7.60;2.35;;;;;;;;;;4996535;28;20045;-81
2022/05/08 12:14:32;;;;;;;7.22;2.53;;;;;;;;;;4996075;28;20133;-83
2022/05/08 12:17:02;;;;;;;9.07;2.58;;;;;;;;;;4997300;28;20058;-82
2022/05/08 12:19:28;;;;;;;6.55;2.70;;;;;;;;;;5023918;28;20089;-83
2022/05/08 12:21:54;;;;;;;5.57;2.53;;;;;;;;;;5011030;28;20097;-83
2022/05/08 12:24:21;;;;;;;7.28;2.40;;;;;;;;;;5015080;28;20041;-83
2022/05/08 12:26:49;;;;;;;5.25;2.47;;;;;;;;;;5012975;28;20119;-83
2022/05/08 12:29:16;;;;;;;7.70;2.45;;;;;;;;;;5006352;28;20042;-85
2022/05/08 12:31:42;;;;;;;5.05;2.50;;;;;;;;;;5005934;28;20504;-82
2022/05/08 12:34:11;;;;;;;6.25;2.40;;;;;;;;;;5015537;28;20100;-82
2022/05/08 12:36:39;;;;;;;5.65;2.40;;;;;;;;;;4994586;28;20054;-82
2022/05/08 12:39:08;;;;;;;6.60;2.20;;;;;;;;;;4995552;28;20371;-81
2022/05/08 12:41:34;;;;;;;7.47;2.20;;;;;;;;;;4995247;28;20507;-83
2022/05/08 12:44:01;;;;;;;5.65;2.33;;;;;;;;;;4994218;28;20383;-81
2022/05/08 12:46:34;;;;;;;5.68;2.50;;;;;;;;;;5001511;28;20055;-82
2022/05/08 12:49:03;;;;;;;5.03;2.30;;;;;;;;;;5015156;28;20054;-82
2022/05/08 12:51:34;;;;;;;5.35;2.70;;;;;;;;;;4995241;28;20064;-82
2022/05/08 12:54:03;;;;;;;6.63;2.28;;;;;;;;;;4992517;28;20058;-82
2022/05/08 12:56:33;;;;;;;3.97;2.17;;;;;;;;;;4994706;28;20053;-82
2022/05/08 13:01:45;;;;;;;8.13;2.38;;;;;;;;;;5009911;28;20083;-82
2022/05/08 13:04:14;;;;;;;7.60;2.70;;;;;;;;;;5033451;28;20045;-79
2022/05/08 13:06:41;;;;;;;10.20;2.50;;;;;;;;;;5018374;28;20042;-79
2022/05/08 13:09:07;;;;;;;4.43;2.42;;;;;;;;;;4993803;28;20042;-83
2022/05/08 13:11:33;;;;;;;7.70;2.50;;;;;;;;;;4994603;28;20050;-82
2022/05/08 13:14:00;;;;;;;7.45;2.72;;;;;;;;;;4994629;28;20038;-84
2022/05/08 13:16:29;;;;;;;6.72;2.30;;;;;;;;;;5003066;28;20560;-82
2022/05/08 13:18:55;;;;;;;7.25;2.80;;;;;;;;;;5014672;28;20619;-84
2022/05/08 13:21:22;;;;;;;5.93;2.47;;;;;;;;;;4997256;28;20472;-82
2022/05/08 13:23:49;;;;;;;6.65;2.60;;;;;;;;;;5006375;28;20137;-82
2022/05/08 13:26:15;;;;;;;6.57;2.85;;;;;;;;;;5029324;28;20407;-83
2022/05/08 13:28:42;;;;;;;9.93;2.75;;;;;;;;;;5007050;28;20057;-81
2022/05/08 13:31:08;;;;;;;7.78;2.53;;;;;;;;;;5012936;28;20041;-82
2022/05/08 13:33:34;;;;;;;4.03;2.35;;;;;;;;;;5002342;28;20045;-81
2022/05/08 13:36:01;;;;;;;6.88;2.83;;;;;;;;;;4996910;28;20502;-81
2022/05/08 13:38:27;;;;;;;7.10;2.50;;;;;;;;;;5010473;28;20041;-81
2022/05/08 13:40:59;;;;;;;5.60;2.30;;;;;;;;;;5014965;28;20042;-81
2022/05/08 13:43:25;;;;;;;6.00;2.53;;;;;;;;;;5012157;28;20400;-81
2022/05/08 13:45:52;;;;;;;7.25;2.50;;;;;;;;;;5014786;28;20049;-82
2022/05/08 13:48:19;;;;;;;5.63;2.60;;;;;;;;;;5024119;28;20053;-81
2022/05/08 13:50:49;;;;;;;10.25;2.80;;;;;;;;;;5026391;28;20038;-81
2022/05/08 13:53:15;;;;;;;6.78;2.80;;;;;;;;;;5016448;28;20050;-81
2022/05/08 13:55:44;;;;;;;6.22;2.40;;;;;;;;;;5033393;28;20082;-80
2022/05/08 13:58:11;;;;;;;6.40;2.50;;;;;;;;;;5028851;28;20053;-81
2022/05/08 14:00:38;;;;;;;6.40;2.30;;;;;;;;;;5012105;28;20145;-80
2022/05/08 14:03:05;;;;;;;7.80;2.53;;;;;;;;;;5031084;28;20076;-82
2022/05/08 14:05:34;;;;;;;5.20;2.42;;;;;;;;;;5022417;28;20038;-80
2022/05/08 14:08:00;;;;;;;9.30;2.58;;;;;;;;;;5006920;28;20125;-81
2022/05/08 14:10:27;;;;;;;4.65;2.20;;;;;;;;;;4990754;28;20053;-81
2022/05/08 14:12:56;;;;;;;6.18;2.58;;;;;;;;;;5003627;28;20413;-80
2022/05/08 14:15:23;;;;;;;7.53;2.50;;;;;;;;;;5012107;28;20547;-80
2022/05/08 14:17:53;;;;;;;7.20;2.30;;;;;;;;;;5024579;28;20053;-80
2022/05/08 14:20:19;;;;;;;6.82;2.20;;;;;;;;;;5023663;28;20064;-81
2022/05/08 14:22:45;;;;;;;3.95;2.10;;;;;;;;;;4998382;28;20054;-80
2022/05/08 14:25:15;;;;;;;4.22;2.22;;;;;;;;;;5006000;28;20393;-80
2022/05/08 14:27:41;;;;;;;7.63;2.50;;;;;;;;;;5000918;28;20047;-80
2022/05/08 14:30:09;;;;;;;5.22;2.25;;;;;;;;;;5016197;28;20125;-80
2022/05/08 14:38:15;;;;;;;6.82;2.28;;;;;;;;;;5002949;28;20049;-81
2022/05/08 14:40:42;;;;;;;5.95;2.00;;;;;;;;;;5008621;28;20196;-82
2022/05/08 14:43:10;;;;;;;5.68;2.47;;;;;;;;;;5006251;28;20388;-81
2022/05/08 14:45:45;;;;;;;4.88;2.10;;;;;;;;;;5005858;28;20117;-81
2022/05/08 14:48:11;;;;;;;4.93;2.10;;;;;;;;;;5005580;28;20046;-80
2022/05/08 14:50:37;;;;;;;3.70;2.17;;;;;;;;;;5012441;28;20046;-81
2022/05/08 14:53:07;;;;;;;7.50;2.30;;;;;;;;;;5015430;28;20076;-81
2022/05/08 14:55:33;;;;;;;4.10;2.30;;;;;;;;;;5001825;28;20084;-81
2022/05/08 14:58:00;;;;;;;4.75;2.10;;;;;;;;;;5007073;28;20070;-80
2022/05/08 15:00:26;;;;;;;4.55;2.20;;;;;;;;;;5020450;28;20135;-81
2022/05/08 15:02:52;;;;;;;6.00;2.22;;;;;;;;;;5009445;28;20484;-81
2022/05/08 15:05:19;;;;;;;4.03;2.28;;;;;;;;;;5008168;28;20459;-80
2022/05/08 15:07:45;;;;;;;4.88;2.20;;;;;;;;;;5016208;28;20121;-82
2022/05/08 15:10:11;;;;;;;5.97;2.08;;;;;;;;;;5020272;28;20080;-79
2022/05/08 15:12:38;;;;;;;4.50;1.90;;;;;;;;;;5017648;28;20045;-80
2022/05/08 15:15:07;;;;;;;4.20;2.00;;;;;;;;;;5024745;28;20049;-81
2022/05/08 15:17:33;;;;;;;5.38;2.17;;;;;;;;;;5009184;28;20074;-80